sensor_id;sensor_type;location;lat;lon;timestamp;P1;durP1;ratioP1;P2;durP2;ratioP2
19828;SDS011;10075;50.924;4.396;2022-12-29T00:00:54;2.93;;;1.43;;
19828;SDS011;10075;50.924;4.396;2022-12-29T00:03:21;3.83;;;1.47;;
19828;SDS011;10075;50.924;4.396;2022-12-29T00:05:53;1.30;;;1.20;;
19828;SDS011;10075;50.924;4.396;2022-12-29T00:08:21;1.70;;;1.10;;
19828;SDS011;10075;50.924;4.396;2022-12-29T00:11:05;2.93;;;1.10;;
19828;SDS011;10075;50.924;4.396;2022-12-29T00:13:33;2.10;;;1.07;;
19828;SDS011;10075;50.924;4.396;2022-12-29T00:16:17;2.87;;;1.40;;
19828;SDS011;10075;50.924;4.396;2022-12-29T00:18:44;1.90;;;1.10;;
19828;SDS011;10075;50.924;4.396;2022-12-29T00:21:12;3.70;;;1.07;;
19828;SDS011;10075;50.924;4.396;2022-12-29T00:23:57;1.13;;;0.80;;
19828;SDS011;10075;50.924;4.396;2022-12-29T00:26:43;2.10;;;0.90;;
19828;SDS011;10075;50.924;4.396;2022-12-29T00:29:28;5.10;;;1.20;;
19828;SDS011;10075;50.924;4.396;2022-12-29T00:32:13;1.93;;;0.80;;
19828;SDS011;10075;50.924;4.396;2022-12-29T00:34:57;2.13;;;0.80;;
19828;SDS011;10075;50.924;4.396;2022-12-29T00:37:36;4.00;;;1.10;;
19828;SDS011;10075;50.924;4.396;2022-12-29T00:40:22;2.33;;;0.80;;
19828;SDS011;10075;50.924;4.396;2022-12-29T00:43:08;2.77;;;0.80;;
19828;SDS011;10075;50.924;4.396;2022-12-29T00:45:52;2.30;;;0.83;;
19828;SDS011;10075;50.924;4.396;2022-12-29T00:48:19;2.80;;;1.03;;
19828;SDS011;10075;50.924;4.396;2022-12-29T00:51:00;2.53;;;0.80;;
19828;SDS011;10075;50.924;4.396;2022-12-29T00:53:27;2.50;;;1.00;;
19828;SDS011;10075;50.924;4.396;2022-12-29T00:55:54;1.90;;;0.90;;
19828;SDS011;10075;50.924;4.396;2022-12-29T00:58:23;5.97;;;1.20;;
19828;SDS011;10075;50.924;4.396;2022-12-29T01:00:50;2.13;;;0.87;;
19828;SDS011;10075;50.924;4.396;2022-12-29T01:03:16;2.83;;;0.83;;
19828;SDS011;10075;50.924;4.396;2022-12-29T01:05:44;1.70;;;0.80;;
19828;SDS011;10075;50.924;4.396;2022-12-29T01:08:11;4.80;;;1.10;;
19828;SDS011;10075;50.924;4.396;2022-12-29T01:10:38;2.23;;;0.73;;
19828;SDS011;10075;50.924;4.396;2022-12-29T01:13:04;4.43;;;1.17;;
19828;SDS011;10075;50.924;4.396;2022-12-29T01:15:32;3.40;;;0.87;;
19828;SDS011;10075;50.924;4.396;2022-12-29T01:17:59;3.47;;;1.00;;
19828;SDS011;10075;50.924;4.396;2022-12-29T01:20:26;3.13;;;0.90;;
19828;SDS011;10075;50.924;4.396;2022-12-29T01:22:53;2.80;;;1.10;;
19828;SDS011;10075;50.924;4.396;2022-12-29T01:25:21;3.33;;;0.80;;
19828;SDS011;10075;50.924;4.396;2022-12-29T01:27:48;3.20;;;0.90;;
19828;SDS011;10075;50.924;4.396;2022-12-29T01:30:15;4.00;;;1.20;;
19828;SDS011;10075;50.924;4.396;2022-12-29T01:32:43;5.60;;;1.00;;
19828;SDS011;10075;50.924;4.396;2022-12-29T01:35:10;4.77;;;1.07;;
19828;SDS011;10075;50.924;4.396;2022-12-29T01:37:37;3.67;;;0.97;;
19828;SDS011;10075;50.924;4.396;2022-12-29T01:40:04;2.40;;;0.90;;
19828;SDS011;10075;50.924;4.396;2022-12-29T01:42:32;7.60;;;1.10;;
19828;SDS011;10075;50.924;4.396;2022-12-29T01:45:00;3.27;;;0.97;;
19828;SDS011;10075;50.924;4.396;2022-12-29T01:47:30;2.77;;;1.10;;
19828;SDS011;10075;50.924;4.396;2022-12-29T01:50:04;5.60;;;1.20;;
19828;SDS011;10075;50.924;4.396;2022-12-29T01:52:35;4.30;;;1.50;;
19828;SDS011;10075;50.924;4.396;2022-12-29T01:55:07;3.40;;;1.27;;
19828;SDS011;10075;50.924;4.396;2022-12-29T01:57:36;4.00;;;1.20;;
19828;SDS011;10075;50.924;4.396;2022-12-29T02:00:08;2.70;;;1.10;;
19828;SDS011;10075;50.924;4.396;2022-12-29T02:02:37;3.57;;;1.03;;
19828;SDS011;10075;50.924;4.396;2022-12-29T02:05:09;3.13;;;1.70;;
19828;SDS011;10075;50.924;4.396;2022-12-29T02:07:38;3.43;;;1.10;;
19828;SDS011;10075;50.924;4.396;2022-12-29T02:10:06;1.73;;;0.80;;
19828;SDS011;10075;50.924;4.396;2022-12-29T02:12:33;2.93;;;0.80;;
19828;SDS011;10075;50.924;4.396;2022-12-29T02:15:00;2.70;;;0.70;;
19828;SDS011;10075;50.924;4.396;2022-12-29T02:17:34;4.77;;;0.90;;
19828;SDS011;10075;50.924;4.396;2022-12-29T02:20:26;3.37;;;1.00;;
19828;SDS011;10075;50.924;4.396;2022-12-29T02:23:13;4.83;;;1.00;;
19828;SDS011;10075;50.924;4.396;2022-12-29T02:26:01;4.83;;;1.10;;
19828;SDS011;10075;50.924;4.396;2022-12-29T02:28:50;2.40;;;0.70;;
19828;SDS011;10075;50.924;4.396;2022-12-29T02:31:31;2.83;;;0.90;;
19828;SDS011;10075;50.924;4.396;2022-12-29T02:34:06;5.73;;;1.30;;
19828;SDS011;10075;50.924;4.396;2022-12-29T02:36:40;4.23;;;0.83;;
19828;SDS011;10075;50.924;4.396;2022-12-29T02:39:14;5.87;;;0.90;;
19828;SDS011;10075;50.924;4.396;2022-12-29T02:41:51;5.80;;;0.93;;
19828;SDS011;10075;50.924;4.396;2022-12-29T02:44:25;3.77;;;0.87;;
19828;SDS011;10075;50.924;4.396;2022-12-29T02:46:58;7.87;;;1.10;;
19828;SDS011;10075;50.924;4.396;2022-12-29T02:49:32;4.57;;;0.80;;
19828;SDS011;10075;50.924;4.396;2022-12-29T02:52:02;2.20;;;0.50;;
19828;SDS011;10075;50.924;4.396;2022-12-29T02:54:33;3.50;;;1.20;;
19828;SDS011;10075;50.924;4.396;2022-12-29T02:57:11;2.20;;;0.70;;
19828;SDS011;10075;50.924;4.396;2022-12-29T02:59:40;3.00;;;0.57;;
19828;SDS011;10075;50.924;4.396;2022-12-29T03:02:18;2.47;;;0.60;;
19828;SDS011;10075;50.924;4.396;2022-12-29T03:05:04;3.50;;;0.70;;
19828;SDS011;10075;50.924;4.396;2022-12-29T03:07:43;3.20;;;0.70;;
19828;SDS011;10075;50.924;4.396;2022-12-29T03:10:25;6.23;;;1.13;;
19828;SDS011;10075;50.924;4.396;2022-12-29T03:13:02;5.30;;;0.97;;
19828;SDS011;10075;50.924;4.396;2022-12-29T03:15:53;5.23;;;1.00;;
19828;SDS011;10075;50.924;4.396;2022-12-29T03:18:32;8.67;;;1.50;;
19828;SDS011;10075;50.924;4.396;2022-12-29T03:21:09;7.30;;;1.10;;
19828;SDS011;10075;50.924;4.396;2022-12-29T03:23:38;6.83;;;1.10;;
19828;SDS011;10075;50.924;4.396;2022-12-29T03:26:10;5.23;;;1.10;;
19828;SDS011;10075;50.924;4.396;2022-12-29T03:28:39;7.53;;;1.70;;
19828;SDS011;10075;50.924;4.396;2022-12-29T03:31:10;10.03;;;1.50;;
19828;SDS011;10075;50.924;4.396;2022-12-29T03:33:41;6.23;;;1.20;;
19828;SDS011;10075;50.924;4.396;2022-12-29T03:36:11;6.13;;;1.20;;
19828;SDS011;10075;50.924;4.396;2022-12-29T03:38:45;6.10;;;1.30;;
19828;SDS011;10075;50.924;4.396;2022-12-29T03:41:15;3.57;;;0.70;;
19828;SDS011;10075;50.924;4.396;2022-12-29T03:43:46;6.80;;;1.23;;
19828;SDS011;10075;50.924;4.396;2022-12-29T03:46:14;1.60;;;0.57;;
19828;SDS011;10075;50.924;4.396;2022-12-29T03:48:42;3.87;;;0.63;;
19828;SDS011;10075;50.924;4.396;2022-12-29T03:51:09;3.43;;;0.70;;
19828;SDS011;10075;50.924;4.396;2022-12-29T03:53:36;3.77;;;0.90;;
19828;SDS011;10075;50.924;4.396;2022-12-29T03:56:03;2.37;;;0.70;;
19828;SDS011;10075;50.924;4.396;2022-12-29T03:58:30;2.10;;;0.80;;
19828;SDS011;10075;50.924;4.396;2022-12-29T04:00:57;4.70;;;1.00;;
19828;SDS011;10075;50.924;4.396;2022-12-29T04:03:24;3.53;;;0.80;;
19828;SDS011;10075;50.924;4.396;2022-12-29T04:05:53;4.23;;;1.07;;
19828;SDS011;10075;50.924;4.396;2022-12-29T04:08:20;3.77;;;0.80;;
19828;SDS011;10075;50.924;4.396;2022-12-29T04:10:47;3.70;;;0.80;;
19828;SDS011;10075;50.924;4.396;2022-12-29T04:13:15;5.60;;;1.13;;
19828;SDS011;10075;50.924;4.396;2022-12-29T04:15:42;3.33;;;0.87;;
19828;SDS011;10075;50.924;4.396;2022-12-29T04:18:10;4.60;;;1.07;;
19828;SDS011;10075;50.924;4.396;2022-12-29T04:20:37;5.40;;;1.00;;
19828;SDS011;10075;50.924;4.396;2022-12-29T04:23:23;6.60;;;1.20;;
19828;SDS011;10075;50.924;4.396;2022-12-29T04:25:50;3.13;;;0.93;;
19828;SDS011;10075;50.924;4.396;2022-12-29T04:28:17;6.03;;;0.90;;
19828;SDS011;10075;50.924;4.396;2022-12-29T04:30:44;5.20;;;1.10;;
19828;SDS011;10075;50.924;4.396;2022-12-29T04:33:12;6.83;;;1.00;;
19828;SDS011;10075;50.924;4.396;2022-12-29T04:35:39;5.00;;;0.80;;
19828;SDS011;10075;50.924;4.396;2022-12-29T04:38:07;5.47;;;0.90;;
19828;SDS011;10075;50.924;4.396;2022-12-29T04:40:37;4.60;;;1.23;;
19828;SDS011;10075;50.924;4.396;2022-12-29T04:43:04;3.93;;;1.23;;
19828;SDS011;10075;50.924;4.396;2022-12-29T04:45:31;2.57;;;0.90;;
19828;SDS011;10075;50.924;4.396;2022-12-29T04:47:58;4.20;;;1.03;;
19828;SDS011;10075;50.924;4.396;2022-12-29T04:50:26;6.73;;;1.10;;
19828;SDS011;10075;50.924;4.396;2022-12-29T04:52:53;5.30;;;0.90;;
19828;SDS011;10075;50.924;4.396;2022-12-29T04:55:20;4.83;;;1.13;;
19828;SDS011;10075;50.924;4.396;2022-12-29T04:57:48;4.90;;;1.30;;
19828;SDS011;10075;50.924;4.396;2022-12-29T05:00:15;5.73;;;0.93;;
19828;SDS011;10075;50.924;4.396;2022-12-29T05:02:43;8.00;;;1.10;;
19828;SDS011;10075;50.924;4.396;2022-12-29T05:05:10;4.47;;;1.00;;
19828;SDS011;10075;50.924;4.396;2022-12-29T05:07:37;7.07;;;1.60;;
19828;SDS011;10075;50.924;4.396;2022-12-29T05:10:05;10.40;;;1.83;;
19828;SDS011;10075;50.924;4.396;2022-12-29T05:12:34;5.73;;;1.63;;
19828;SDS011;10075;50.924;4.396;2022-12-29T05:15:05;9.60;;;2.00;;
19828;SDS011;10075;50.924;4.396;2022-12-29T05:17:33;7.43;;;1.80;;
19828;SDS011;10075;50.924;4.396;2022-12-29T05:20:00;6.07;;;1.80;;
19828;SDS011;10075;50.924;4.396;2022-12-29T05:22:27;4.90;;;1.60;;
19828;SDS011;10075;50.924;4.396;2022-12-29T05:24:54;7.60;;;1.30;;
19828;SDS011;10075;50.924;4.396;2022-12-29T05:27:21;7.50;;;1.70;;
19828;SDS011;10075;50.924;4.396;2022-12-29T05:29:48;8.27;;;1.20;;
19828;SDS011;10075;50.924;4.396;2022-12-29T05:32:17;6.13;;;1.60;;
19828;SDS011;10075;50.924;4.396;2022-12-29T05:34:44;6.13;;;1.50;;
19828;SDS011;10075;50.924;4.396;2022-12-29T05:37:11;8.47;;;1.97;;
19828;SDS011;10075;50.924;4.396;2022-12-29T05:39:38;6.00;;;1.57;;
19828;SDS011;10075;50.924;4.396;2022-12-29T05:42:05;6.20;;;1.83;;
19828;SDS011;10075;50.924;4.396;2022-12-29T05:44:32;5.80;;;1.10;;
19828;SDS011;10075;50.924;4.396;2022-12-29T05:46:59;7.70;;;1.57;;
19828;SDS011;10075;50.924;4.396;2022-12-29T05:49:27;11.27;;;1.60;;
19828;SDS011;10075;50.924;4.396;2022-12-29T05:51:54;9.40;;;2.00;;
19828;SDS011;10075;50.924;4.396;2022-12-29T05:54:21;4.97;;;1.20;;
19828;SDS011;10075;50.924;4.396;2022-12-29T05:56:48;8.20;;;2.03;;
19828;SDS011;10075;50.924;4.396;2022-12-29T05:59:15;7.43;;;1.53;;
19828;SDS011;10075;50.924;4.396;2022-12-29T06:01:42;10.70;;;1.70;;
19828;SDS011;10075;50.924;4.396;2022-12-29T06:04:09;4.73;;;1.33;;
19828;SDS011;10075;50.924;4.396;2022-12-29T06:06:38;8.87;;;1.33;;
19828;SDS011;10075;50.924;4.396;2022-12-29T06:09:05;15.00;;;2.50;;
19828;SDS011;10075;50.924;4.396;2022-12-29T06:11:32;10.63;;;2.57;;
19828;SDS011;10075;50.924;4.396;2022-12-29T06:13:59;7.90;;;1.70;;
19828;SDS011;10075;50.924;4.396;2022-12-29T06:16:26;11.70;;;1.57;;
19828;SDS011;10075;50.924;4.396;2022-12-29T06:18:53;10.83;;;1.97;;
19828;SDS011;10075;50.924;4.396;2022-12-29T06:21:20;8.50;;;1.50;;
19828;SDS011;10075;50.924;4.396;2022-12-29T06:23:49;5.33;;;1.70;;
19828;SDS011;10075;50.924;4.396;2022-12-29T06:26:16;8.30;;;1.77;;
19828;SDS011;10075;50.924;4.396;2022-12-29T06:28:43;13.77;;;2.23;;
19828;SDS011;10075;50.924;4.396;2022-12-29T06:31:10;8.33;;;1.70;;
19828;SDS011;10075;50.924;4.396;2022-12-29T06:33:37;9.73;;;1.87;;
19828;SDS011;10075;50.924;4.396;2022-12-29T06:36:05;12.67;;;2.23;;
19828;SDS011;10075;50.924;4.396;2022-12-29T06:38:32;10.23;;;1.80;;
19828;SDS011;10075;50.924;4.396;2022-12-29T06:41:01;5.23;;;1.23;;
19828;SDS011;10075;50.924;4.396;2022-12-29T06:43:28;7.07;;;2.00;;
19828;SDS011;10075;50.924;4.396;2022-12-29T06:45:57;7.93;;;1.57;;
19828;SDS011;10075;50.924;4.396;2022-12-29T06:48:24;8.20;;;1.93;;
19828;SDS011;10075;50.924;4.396;2022-12-29T06:50:51;8.00;;;1.83;;
19828;SDS011;10075;50.924;4.396;2022-12-29T06:53:18;8.73;;;2.07;;
19828;SDS011;10075;50.924;4.396;2022-12-29T06:55:45;7.10;;;1.70;;
19828;SDS011;10075;50.924;4.396;2022-12-29T06:58:13;6.63;;;1.40;;
19828;SDS011;10075;50.924;4.396;2022-12-29T07:00:40;9.93;;;1.93;;
19828;SDS011;10075;50.924;4.396;2022-12-29T07:03:07;10.63;;;2.37;;
19828;SDS011;10075;50.924;4.396;2022-12-29T07:05:34;10.87;;;2.37;;
19828;SDS011;10075;50.924;4.396;2022-12-29T07:08:01;11.57;;;2.23;;
19828;SDS011;10075;50.924;4.396;2022-12-29T07:10:28;9.37;;;1.80;;
19828;SDS011;10075;50.924;4.396;2022-12-29T07:12:55;9.57;;;1.90;;
19828;SDS011;10075;50.924;4.396;2022-12-29T07:15:24;8.97;;;1.83;;
19828;SDS011;10075;50.924;4.396;2022-12-29T07:17:51;19.03;;;2.40;;
19828;SDS011;10075;50.924;4.396;2022-12-29T07:20:18;10.43;;;1.73;;
19828;SDS011;10075;50.924;4.396;2022-12-29T07:22:45;9.73;;;1.63;;
19828;SDS011;10075;50.924;4.396;2022-12-29T07:25:12;11.40;;;2.37;;
19828;SDS011;10075;50.924;4.396;2022-12-29T07:27:39;8.33;;;1.83;;
19828;SDS011;10075;50.924;4.396;2022-12-29T07:30:07;8.27;;;1.53;;
19828;SDS011;10075;50.924;4.396;2022-12-29T07:32:36;9.87;;;2.20;;
19828;SDS011;10075;50.924;4.396;2022-12-29T07:35:03;7.63;;;1.80;;
19828;SDS011;10075;50.924;4.396;2022-12-29T07:37:31;12.50;;;2.40;;
19828;SDS011;10075;50.924;4.396;2022-12-29T07:39:58;7.77;;;1.43;;
19828;SDS011;10075;50.924;4.396;2022-12-29T07:42:26;8.93;;;1.90;;
19828;SDS011;10075;50.924;4.396;2022-12-29T07:44:53;10.63;;;1.63;;
19828;SDS011;10075;50.924;4.396;2022-12-29T07:47:20;7.57;;;1.73;;
19828;SDS011;10075;50.924;4.396;2022-12-29T07:49:49;7.57;;;2.13;;
19828;SDS011;10075;50.924;4.396;2022-12-29T07:52:16;13.03;;;2.63;;
19828;SDS011;10075;50.924;4.396;2022-12-29T07:54:43;8.43;;;2.07;;
19828;SDS011;10075;50.924;4.396;2022-12-29T07:57:10;10.67;;;2.40;;
19828;SDS011;10075;50.924;4.396;2022-12-29T07:59:37;9.67;;;1.90;;
19828;SDS011;10075;50.924;4.396;2022-12-29T08:02:04;11.00;;;1.77;;
19828;SDS011;10075;50.924;4.396;2022-12-29T08:04:32;11.47;;;2.60;;
19828;SDS011;10075;50.924;4.396;2022-12-29T08:07:00;7.17;;;1.77;;
19828;SDS011;10075;50.924;4.396;2022-12-29T08:09:27;11.47;;;2.17;;
19828;SDS011;10075;50.924;4.396;2022-12-29T08:11:54;9.70;;;2.70;;
19828;SDS011;10075;50.924;4.396;2022-12-29T08:14:21;12.67;;;2.07;;
19828;SDS011;10075;50.924;4.396;2022-12-29T08:16:48;16.27;;;2.40;;
19828;SDS011;10075;50.924;4.396;2022-12-29T08:19:15;7.60;;;1.77;;
19828;SDS011;10075;50.924;4.396;2022-12-29T08:21:42;12.43;;;2.17;;
19828;SDS011;10075;50.924;4.396;2022-12-29T08:24:11;13.43;;;2.47;;
19828;SDS011;10075;50.924;4.396;2022-12-29T08:26:38;12.97;;;3.33;;
19828;SDS011;10075;50.924;4.396;2022-12-29T08:29:05;14.10;;;3.87;;
19828;SDS011;10075;50.924;4.396;2022-12-29T08:31:32;7.73;;;2.37;;
19828;SDS011;10075;50.924;4.396;2022-12-29T08:33:59;9.77;;;1.70;;
19828;SDS011;10075;50.924;4.396;2022-12-29T08:36:28;13.50;;;3.13;;
19828;SDS011;10075;50.924;4.396;2022-12-29T08:38:55;12.07;;;2.37;;
19828;SDS011;10075;50.924;4.396;2022-12-29T08:41:24;15.50;;;2.30;;
19828;SDS011;10075;50.924;4.396;2022-12-29T08:43:51;11.97;;;2.13;;
19828;SDS011;10075;50.924;4.396;2022-12-29T08:46:18;7.23;;;1.80;;
19828;SDS011;10075;50.924;4.396;2022-12-29T08:48:45;6.63;;;1.97;;
19828;SDS011;10075;50.924;4.396;2022-12-29T08:51:12;8.57;;;2.70;;
19828;SDS011;10075;50.924;4.396;2022-12-29T08:53:40;13.47;;;3.07;;
19828;SDS011;10075;50.924;4.396;2022-12-29T08:56:08;10.67;;;2.07;;
19828;SDS011;10075;50.924;4.396;2022-12-29T08:58:37;12.27;;;2.37;;
19828;SDS011;10075;50.924;4.396;2022-12-29T09:01:04;16.37;;;2.67;;
19828;SDS011;10075;50.924;4.396;2022-12-29T09:03:31;10.40;;;2.30;;
19828;SDS011;10075;50.924;4.396;2022-12-29T09:05:59;10.17;;;2.57;;
19828;SDS011;10075;50.924;4.396;2022-12-29T09:08:26;13.27;;;2.57;;
19828;SDS011;10075;50.924;4.396;2022-12-29T09:10:53;10.97;;;2.00;;
19828;SDS011;10075;50.924;4.396;2022-12-29T09:13:20;11.30;;;2.63;;
19828;SDS011;10075;50.924;4.396;2022-12-29T09:15:48;11.83;;;2.10;;
19828;SDS011;10075;50.924;4.396;2022-12-29T09:18:23;10.20;;;2.60;;
19828;SDS011;10075;50.924;4.396;2022-12-29T09:20:55;12.03;;;2.93;;
19828;SDS011;10075;50.924;4.396;2022-12-29T09:23:22;9.93;;;2.43;;
19828;SDS011;10075;50.924;4.396;2022-12-29T09:25:50;11.80;;;2.23;;
19828;SDS011;10075;50.924;4.396;2022-12-29T09:28:17;14.67;;;2.37;;
19828;SDS011;10075;50.924;4.396;2022-12-29T09:30:44;13.83;;;2.40;;
19828;SDS011;10075;50.924;4.396;2022-12-29T09:33:13;12.90;;;3.10;;
19828;SDS011;10075;50.924;4.396;2022-12-29T09:35:41;11.87;;;2.20;;
19828;SDS011;10075;50.924;4.396;2022-12-29T09:38:09;11.60;;;2.87;;
19828;SDS011;10075;50.924;4.396;2022-12-29T09:40:37;9.37;;;2.00;;
19828;SDS011;10075;50.924;4.396;2022-12-29T09:43:07;8.97;;;2.40;;
19828;SDS011;10075;50.924;4.396;2022-12-29T09:45:59;12.67;;;2.13;;
19828;SDS011;10075;50.924;4.396;2022-12-29T09:48:35;13.43;;;2.37;;
19828;SDS011;10075;50.924;4.396;2022-12-29T09:51:08;11.57;;;2.60;;
19828;SDS011;10075;50.924;4.396;2022-12-29T09:53:40;6.63;;;2.00;;
19828;SDS011;10075;50.924;4.396;2022-12-29T09:56:10;15.17;;;2.93;;
19828;SDS011;10075;50.924;4.396;2022-12-29T09:58:45;16.53;;;2.67;;
19828;SDS011;10075;50.924;4.396;2022-12-29T10:01:20;11.97;;;2.73;;
19828;SDS011;10075;50.924;4.396;2022-12-29T10:03:55;9.90;;;2.10;;
19828;SDS011;10075;50.924;4.396;2022-12-29T10:06:24;15.23;;;2.70;;
19828;SDS011;10075;50.924;4.396;2022-12-29T10:08:56;15.30;;;2.77;;
19828;SDS011;10075;50.924;4.396;2022-12-29T10:11:31;13.60;;;2.83;;
19828;SDS011;10075;50.924;4.396;2022-12-29T10:14:17;10.60;;;2.27;;
19828;SDS011;10075;50.924;4.396;2022-12-29T10:16:56;10.63;;;2.00;;
19828;SDS011;10075;50.924;4.396;2022-12-29T10:19:41;21.07;;;4.13;;
19828;SDS011;10075;50.924;4.396;2022-12-29T10:22:24;15.33;;;2.00;;
19828;SDS011;10075;50.924;4.396;2022-12-29T10:25:02;12.30;;;3.10;;
19828;SDS011;10075;50.924;4.396;2022-12-29T10:27:35;13.97;;;2.83;;
19828;SDS011;10075;50.924;4.396;2022-12-29T10:30:02;12.80;;;2.00;;
19828;SDS011;10075;50.924;4.396;2022-12-29T10:32:32;11.00;;;2.40;;
19828;SDS011;10075;50.924;4.396;2022-12-29T10:35:05;12.90;;;2.70;;
19828;SDS011;10075;50.924;4.396;2022-12-29T10:37:40;13.77;;;3.00;;
19828;SDS011;10075;50.924;4.396;2022-12-29T10:40:14;9.33;;;2.10;;
19828;SDS011;10075;50.924;4.396;2022-12-29T10:42:49;11.70;;;1.90;;
19828;SDS011;10075;50.924;4.396;2022-12-29T10:45:19;16.00;;;2.53;;
19828;SDS011;10075;50.924;4.396;2022-12-29T10:47:51;12.40;;;2.60;;
19828;SDS011;10075;50.924;4.396;2022-12-29T10:50:23;13.93;;;2.87;;
19828;SDS011;10075;50.924;4.396;2022-12-29T10:52:51;11.30;;;2.30;;
19828;SDS011;10075;50.924;4.396;2022-12-29T10:55:21;11.27;;;2.60;;
19828;SDS011;10075;50.924;4.396;2022-12-29T10:57:53;10.83;;;2.53;;
19828;SDS011;10075;50.924;4.396;2022-12-29T11:00:22;13.83;;;2.83;;
19828;SDS011;10075;50.924;4.396;2022-12-29T11:02:57;12.07;;;2.60;;
19828;SDS011;10075;50.924;4.396;2022-12-29T11:05:40;7.27;;;2.20;;
19828;SDS011;10075;50.924;4.396;2022-12-29T11:08:13;8.67;;;2.30;;
19828;SDS011;10075;50.924;4.396;2022-12-29T11:10:44;11.67;;;2.27;;
19828;SDS011;10075;50.924;4.396;2022-12-29T11:13:12;10.47;;;2.33;;
19828;SDS011;10075;50.924;4.396;2022-12-29T11:15:41;9.90;;;2.73;;
19828;SDS011;10075;50.924;4.396;2022-12-29T11:18:22;12.40;;;2.60;;
19828;SDS011;10075;50.924;4.396;2022-12-29T11:20:52;12.83;;;2.77;;
19828;SDS011;10075;50.924;4.396;2022-12-29T11:23:22;7.80;;;3.17;;
19828;SDS011;10075;50.924;4.396;2022-12-29T11:26:11;9.63;;;2.60;;
19828;SDS011;10075;50.924;4.396;2022-12-29T11:28:42;12.03;;;2.40;;
19828;SDS011;10075;50.924;4.396;2022-12-29T11:31:10;11.53;;;2.63;;
19828;SDS011;10075;50.924;4.396;2022-12-29T11:33:41;10.70;;;2.30;;
19828;SDS011;10075;50.924;4.396;2022-12-29T11:36:11;12.40;;;2.50;;
19828;SDS011;10075;50.924;4.396;2022-12-29T11:38:45;10.90;;;2.53;;
19828;SDS011;10075;50.924;4.396;2022-12-29T11:41:22;10.53;;;2.77;;
19828;SDS011;10075;50.924;4.396;2022-12-29T11:43:52;10.53;;;2.77;;
19828;SDS011;10075;50.924;4.396;2022-12-29T11:46:20;14.57;;;2.53;;
19828;SDS011;10075;50.924;4.396;2022-12-29T11:48:50;12.30;;;2.63;;
19828;SDS011;10075;50.924;4.396;2022-12-29T11:51:22;10.43;;;2.20;;
19828;SDS011;10075;50.924;4.396;2022-12-29T11:53:53;10.87;;;2.50;;
19828;SDS011;10075;50.924;4.396;2022-12-29T11:56:32;9.80;;;2.50;;
19828;SDS011;10075;50.924;4.396;2022-12-29T12:02:07;10.03;;;2.60;;
19828;SDS011;10075;50.924;4.396;2022-12-29T12:04:41;11.07;;;2.40;;
19828;SDS011;10075;50.924;4.396;2022-12-29T12:07:10;13.20;;;3.80;;
19828;SDS011;10075;50.924;4.396;2022-12-29T12:09:41;17.57;;;3.07;;
19828;SDS011;10075;50.924;4.396;2022-12-29T12:12:15;12.47;;;3.30;;
19828;SDS011;10075;50.924;4.396;2022-12-29T12:14:50;14.13;;;3.60;;
19828;SDS011;10075;50.924;4.396;2022-12-29T12:17:23;8.47;;;2.53;;
19828;SDS011;10075;50.924;4.396;2022-12-29T12:20:03;7.07;;;2.07;;
19828;SDS011;10075;50.924;4.396;2022-12-29T12:22:43;14.90;;;2.73;;
19828;SDS011;10075;50.924;4.396;2022-12-29T12:25:15;15.27;;;2.57;;
19828;SDS011;10075;50.924;4.396;2022-12-29T12:27:48;14.80;;;3.07;;
19828;SDS011;10075;50.924;4.396;2022-12-29T12:30:19;17.80;;;3.03;;
19828;SDS011;10075;50.924;4.396;2022-12-29T12:32:48;12.30;;;2.87;;
19828;SDS011;10075;50.924;4.396;2022-12-29T12:35:23;11.53;;;2.50;;
19828;SDS011;10075;50.924;4.396;2022-12-29T12:38:03;11.33;;;2.43;;
19828;SDS011;10075;50.924;4.396;2022-12-29T12:40:44;15.40;;;2.53;;
19828;SDS011;10075;50.924;4.396;2022-12-29T12:43:29;15.63;;;2.43;;
19828;SDS011;10075;50.924;4.396;2022-12-29T12:46:23;10.97;;;2.30;;
19828;SDS011;10075;50.924;4.396;2022-12-29T12:49:36;13.77;;;2.70;;
19828;SDS011;10075;50.924;4.396;2022-12-29T12:52:28;11.20;;;2.53;;
19828;SDS011;10075;50.924;4.396;2022-12-29T12:55:22;9.73;;;2.60;;
19828;SDS011;10075;50.924;4.396;2022-12-29T12:58:06;10.83;;;2.60;;
19828;SDS011;10075;50.924;4.396;2022-12-29T13:00:44;11.00;;;2.63;;
19828;SDS011;10075;50.924;4.396;2022-12-29T13:03:22;10.20;;;2.37;;
19828;SDS011;10075;50.924;4.396;2022-12-29T13:06:06;10.40;;;2.40;;
19828;SDS011;10075;50.924;4.396;2022-12-29T13:08:49;10.63;;;2.67;;
19828;SDS011;10075;50.924;4.396;2022-12-29T13:11:32;10.17;;;2.00;;
19828;SDS011;10075;50.924;4.396;2022-12-29T13:14:12;15.13;;;3.00;;
19828;SDS011;10075;50.924;4.396;2022-12-29T13:16:56;10.17;;;2.50;;
19828;SDS011;10075;50.924;4.396;2022-12-29T13:19:34;8.57;;;2.40;;
19828;SDS011;10075;50.924;4.396;2022-12-29T13:22:08;13.13;;;2.17;;
19828;SDS011;10075;50.924;4.396;2022-12-29T13:24:42;10.97;;;2.73;;
19828;SDS011;10075;50.924;4.396;2022-12-29T13:27:23;6.63;;;1.80;;
19828;SDS011;10075;50.924;4.396;2022-12-29T13:29:59;4.77;;;1.80;;
19828;SDS011;10075;50.924;4.396;2022-12-29T13:32:32;7.07;;;1.53;;
19828;SDS011;10075;50.924;4.396;2022-12-29T13:35:17;8.30;;;1.87;;
19828;SDS011;10075;50.924;4.396;2022-12-29T13:37:56;3.90;;;1.40;;
19828;SDS011;10075;50.924;4.396;2022-12-29T13:40:31;8.17;;;1.90;;
19828;SDS011;10075;50.924;4.396;2022-12-29T13:43:05;7.73;;;2.37;;
19828;SDS011;10075;50.924;4.396;2022-12-29T13:45:33;11.93;;;2.87;;
19828;SDS011;10075;50.924;4.396;2022-12-29T13:48:02;11.67;;;2.60;;
19828;SDS011;10075;50.924;4.396;2022-12-29T13:50:36;11.60;;;2.20;;
19828;SDS011;10075;50.924;4.396;2022-12-29T13:53:06;5.90;;;1.87;;
19828;SDS011;10075;50.924;4.396;2022-12-29T13:55:45;10.47;;;2.30;;
19828;SDS011;10075;50.924;4.396;2022-12-29T13:58:20;10.80;;;2.23;;
19828;SDS011;10075;50.924;4.396;2022-12-29T14:00:55;10.30;;;2.53;;
19828;SDS011;10075;50.924;4.396;2022-12-29T14:03:41;13.47;;;3.00;;
19828;SDS011;10075;50.924;4.396;2022-12-29T14:06:22;11.57;;;2.50;;
19828;SDS011;10075;50.924;4.396;2022-12-29T14:08:52;14.50;;;3.20;;
19828;SDS011;10075;50.924;4.396;2022-12-29T14:11:21;19.13;;;3.07;;
19828;SDS011;10075;50.924;4.396;2022-12-29T14:13:54;13.57;;;2.70;;
19828;SDS011;10075;50.924;4.396;2022-12-29T14:16:25;11.97;;;4.40;;
19828;SDS011;10075;50.924;4.396;2022-12-29T14:18:55;14.47;;;3.17;;
19828;SDS011;10075;50.924;4.396;2022-12-29T14:21:29;13.33;;;3.37;;
19828;SDS011;10075;50.924;4.396;2022-12-29T14:24:02;15.03;;;2.57;;
19828;SDS011;10075;50.924;4.396;2022-12-29T14:33:18;4.30;;;0.87;;
19828;SDS011;10075;50.924;4.396;2022-12-29T14:35:47;4.97;;;0.83;;
19828;SDS011;10075;50.924;4.396;2022-12-29T14:38:24;3.60;;;1.03;;
19828;SDS011;10075;50.924;4.396;2022-12-29T14:41:14;6.70;;;1.50;;
19828;SDS011;10075;50.924;4.396;2022-12-29T14:44:00;7.57;;;1.13;;
19828;SDS011;10075;50.924;4.396;2022-12-29T14:46:47;6.03;;;1.13;;
19828;SDS011;10075;50.924;4.396;2022-12-29T14:49:21;5.93;;;1.03;;
19828;SDS011;10075;50.924;4.396;2022-12-29T14:51:50;6.93;;;1.60;;
19828;SDS011;10075;50.924;4.396;2022-12-29T14:57:18;10.43;;;1.90;;
19828;SDS011;10075;50.924;4.396;2022-12-29T14:59:54;6.50;;;1.43;;
19828;SDS011;10075;50.924;4.396;2022-12-29T15:02:31;6.80;;;1.53;;
19828;SDS011;10075;50.924;4.396;2022-12-29T15:05:05;4.47;;;1.63;;
19828;SDS011;10075;50.924;4.396;2022-12-29T15:07:48;10.07;;;1.63;;
19828;SDS011;10075;50.924;4.396;2022-12-29T15:10:17;11.47;;;2.00;;
19828;SDS011;10075;50.924;4.396;2022-12-29T15:12:45;7.03;;;1.50;;
19828;SDS011;10075;50.924;4.396;2022-12-29T15:15:19;7.93;;;1.80;;
19828;SDS011;10075;50.924;4.396;2022-12-29T15:17:51;12.53;;;2.30;;
19828;SDS011;10075;50.924;4.396;2022-12-29T15:20:23;10.80;;;2.37;;
19828;SDS011;10075;50.924;4.396;2022-12-29T15:22:53;9.40;;;1.80;;